Time;durP1;ratioP1;P1;durP2;ratioP2;P2;SDS_P1;SDS_P2;PMS_P1;PMS_P2;Temp;Humidity;BMP_temperature;BMP_pressure;BME280_temperature;BME280_humidity;BME280_pressure;Samples;Min_cycle;Max_cycle;Signal;HPM_P1;HPM_P2
2023/08/02 00:01:51;;;;;;;1999.90;999.90;;;;;;;24.30;57.56;100127.41;5029521;28;20038;-73
2023/08/02 00:04:17;;;;;;;1999.90;999.90;;;;;;;22.78;63.55;100125.38;5050137;28;20063;-72
2023/08/02 00:06:42;;;;;;;1999.90;999.90;;;;;;;24.25;58.49;100114.41;5042145;28;20025;-73
2023/08/02 00:09:07;;;;;;;1999.90;999.90;;;;;;;24.72;56.00;100101.78;5031565;28;20025;-73
2023/08/02 00:11:33;;;;;;;1999.90;999.90;;;;;;;23.77;57.72;100099.41;5015967;28;20033;-73
2023/08/02 00:13:59;;;;;;;1999.90;999.90;;;;;;;23.74;58.92;100102.31;5066770;28;20028;-73
2023/08/02 00:16:25;;;;;;;1999.90;999.90;;;;;;;23.92;57.61;100096.53;5048139;28;20028;-73
2023/08/02 00:18:50;;;;;;;1999.90;999.90;;;;;;;24.40;56.62;100107.00;5031860;28;20040;-73
2023/08/02 00:21:15;;;;;;;1999.90;999.90;;;;;;;23.90;57.08;100103.84;5031872;28;20026;-73
2023/08/02 00:23:41;;;;;;;1999.90;999.90;;;;;;;25.07;54.46;100094.50;5048070;28;20033;-72
2023/08/02 00:26:06;;;;;;;1999.90;999.90;;;;;;;24.90;54.59;100091.41;5050579;28;20057;-71
2023/08/02 00:28:32;;;;;;;1999.90;999.90;;;;;;;25.31;53.38;100088.94;5033336;28;20033;-72
2023/08/02 00:30:57;;;;;;;1999.90;999.90;;;;;;;25.15;54.06;100092.03;5031407;28;20063;-72
2023/08/02 00:33:22;;;;;;;1999.90;999.90;;;;;;;24.72;54.00;100095.59;5039905;28;20540;-71
2023/08/02 00:35:52;;;;;;;1999.90;999.90;;;;;;;24.37;56.78;100089.41;5051549;28;20028;-71
2023/08/02 00:38:18;;;;;;;1999.90;999.90;;;;;;;23.85;59.86;100089.00;5024660;28;20022;-72
2023/08/02 00:40:44;;;;;;;1999.90;999.90;;;;;;;24.77;56.35;100082.72;5043251;28;20035;-72
2023/08/02 00:43:09;;;;;;;1999.90;999.90;;;;;;;24.71;55.75;100077.84;5050456;28;20040;-72
2023/08/02 00:45:36;;;;;;;1999.90;999.90;;;;;;;24.09;57.49;100077.41;5051225;28;20052;-72
2023/08/02 00:48:02;;;;;;;1999.90;999.90;;;;;;;24.34;57.06;100080.78;5033572;28;20026;-72
2023/08/02 00:50:31;;;;;;;1999.90;999.90;;;;;;;24.37;57.06;100077.88;5031944;28;20035;-72
2023/08/02 00:52:56;;;;;;;1999.90;999.90;;;;;;;23.94;58.52;100074.09;5026492;28;20326;-72
2023/08/02 00:55:22;;;;;;;1999.90;999.90;;;;;;;23.92;60.33;100085.88;5010834;28;20132;-72
2023/08/02 00:57:47;;;;;;;1999.90;999.90;;;;;;;24.04;59.50;100079.56;5023887;28;20036;-72
2023/08/02 01:00:13;;;;;;;1999.90;999.90;;;;;;;23.48;61.65;100078.50;5032144;28;20844;-72
2023/08/02 01:02:38;;;;;;;1999.90;999.90;;;;;;;23.96;58.54;100073.97;5037971;28;20075;-72
2023/08/02 01:05:04;;;;;;;1999.90;999.90;;;;;;;23.44;61.11;100069.03;5049699;28;20029;-71
2023/08/02 01:07:56;;;;;;;1999.90;999.90;;;;;;;24.11;59.16;100063.91;5022102;28;20482;-72
2023/08/02 01:10:27;;;;;;;1999.90;999.90;;;;;;;23.30;61.61;100047.88;5025003;28;20045;-72
2023/08/02 01:12:54;;;;;;;1999.90;999.90;;;;;;;23.03;62.85;100056.97;5051086;28;20021;-72
2023/08/02 01:15:20;;;;;;;1999.90;999.90;;;;;;;24.07;58.81;100057.13;5050573;28;20485;-72
2023/08/02 01:17:47;;;;;;;1999.90;999.90;;;;;;;24.34;56.57;100046.06;5043238;28;20049;-72
2023/08/02 01:20:13;;;;;;;1999.90;999.90;;;;;;;24.49;56.40;100047.50;5051334;28;20025;-72
2023/08/02 01:22:38;;;;;;;1999.90;999.90;;;;;;;23.57;58.79;100055.59;5049702;28;20106;-72
2023/08/02 01:25:05;;;;;;;1999.90;999.90;;;;;;;23.07;62.08;100053.13;5051180;28;20112;-72
2023/08/02 01:27:40;;;;;;;1999.90;999.90;;;;;;;23.36;61.56;100042.94;5042912;28;20017;-72
2023/08/02 01:30:10;;;;;;;1999.90;999.90;;;;;;;23.15;60.92;100049.88;5041873;28;20044;-71
2023/08/02 01:32:36;;;;;;;1999.90;999.90;;;;;;;23.82;59.37;100043.00;5043737;28;20016;-72
2023/08/02 01:35:02;;;;;;;1999.90;999.90;;;;;;;23.45;60.00;100046.75;5033596;28;20060;-72
2023/08/02 01:37:28;;;;;;;1999.90;999.90;;;;;;;23.61;59.30;100034.88;5028960;28;20024;-72
2023/08/02 01:39:53;;;;;;;1999.90;999.90;;;;;;;24.14;58.74;100021.84;5044453;28;20571;-72
2023/08/02 01:42:19;;;;;;;1999.90;999.90;;;;;;;24.03;57.81;100013.84;5046907;28;20025;-72
2023/08/02 01:44:44;;;;;;;1999.90;999.90;;;;;;;23.31;62.41;100020.25;5030899;28;20029;-72
2023/08/02 01:47:09;;;;;;;1999.90;999.90;;;;;;;23.72;61.63;100017.06;5029429;28;20021;-72
2023/08/02 01:49:35;;;;;;;1999.90;999.90;;;;;;;23.48;60.54;100003.81;5032867;28;20021;-72
2023/08/02 01:52:01;;;;;;;1999.90;999.90;;;;;;;23.25;62.67;100008.25;5029430;28;20485;-72
2023/08/02 01:54:26;;;;;;;1999.90;999.90;;;;;;;23.36;62.75;99994.09;5030191;28;20029;-72
2023/08/02 01:56:51;;;;;;;1999.90;999.90;;;;;;;24.55;57.15;99977.56;5028419;28;20063;-72
2023/08/02 01:59:17;;;;;;;1999.90;999.90;;;;;;;24.14;58.70;99984.47;5046793;28;20020;-71
2023/08/02 02:01:42;;;;;;;1999.90;999.90;;;;;;;23.79;60.31;99974.72;5040751;28;20022;-72
2023/08/02 02:04:08;;;;;;;1999.90;999.90;;;;;;;23.18;61.33;99970.56;5028237;28;20032;-72
2023/08/02 02:06:33;;;;;;;1999.90;999.90;;;;;;;24.03;59.83;99960.47;5044969;28;20095;-72
2023/08/02 02:08:58;;;;;;;1999.90;999.90;;;;;;;24.02;59.61;99953.41;5029186;28;20063;-72
2023/08/02 02:11:24;;;;;;;1999.90;999.90;;;;;;;23.30;61.49;99947.44;5043110;28;20032;-72
2023/08/02 02:13:49;;;;;;;1999.90;999.90;;;;;;;23.99;59.86;99938.50;5049949;28;20067;-71
2023/08/02 02:16:15;;;;;;;1999.90;999.90;;;;;;;24.22;57.56;99928.63;5048746;28;20036;-71
2023/08/02 02:18:40;;;;;;;1999.90;999.90;;;;;;;23.72;58.95;99941.53;5043533;28;20029;-71
2023/08/02 02:21:06;;;;;;;1999.90;999.90;;;;;;;23.63;59.62;99931.56;5031858;28;20071;-72
2023/08/02 02:23:31;;;;;;;1999.90;999.90;;;;;;;24.22;58.36;99907.28;5030345;28;20056;-72
2023/08/02 02:25:57;;;;;;;1999.90;999.90;;;;;;;24.99;54.58;99900.03;5038737;28;20546;-71
2023/08/02 02:28:22;;;;;;;1999.90;999.90;;;;;;;23.63;58.10;99902.22;5032206;28;20033;-72
2023/08/02 02:30:48;;;;;;;1999.90;999.90;;;;;;;23.19;61.98;99899.44;5028944;28;20120;-72
2023/08/02 02:33:14;;;;;;;1999.90;999.90;;;;;;;24.04;58.20;99892.75;5030701;28;20155;-72
2023/08/02 02:35:39;;;;;;;1999.90;999.90;;;;;;;24.38;56.66;99890.81;5047017;28;20485;-72
2023/08/02 02:38:05;;;;;;;1999.90;999.90;;;;;;;24.15;56.48;99890.06;5033884;28;20120;-72
2023/08/02 02:40:30;;;;;;;1999.90;999.90;;;;;;;24.34;56.70;99891.19;5038515;28;20067;-72
2023/08/02 02:42:55;;;;;;;1999.90;999.90;;;;;;;24.27;56.38;99887.34;5049039;28;20025;-71
2023/08/02 02:45:21;;;;;;;1999.90;999.90;;;;;;;24.93;54.21;99884.50;5048361;28;20033;-72
2023/08/02 02:47:46;;;;;;;1999.90;999.90;;;;;;;25.04;53.63;99886.25;5035637;28;20032;-72
2023/08/02 02:50:12;;;;;;;1999.90;999.90;;;;;;;25.64;51.74;99893.63;5031009;28;20044;-72
2023/08/02 02:52:37;;;;;;;1999.90;999.90;;;;;;;25.46;52.13;99890.72;5028980;28;20036;-71
2023/08/02 02:55:03;;;;;;;1999.90;999.90;;;;;;;24.88;54.34;99889.38;5034436;28;20128;-72
2023/08/02 02:57:28;;;;;;;1999.90;999.90;;;;;;;24.96;54.07;99872.72;5038474;28;20383;-72
2023/08/02 02:59:53;;;;;;;1999.90;999.90;;;;;;;25.07;53.85;99867.28;5028782;28;20017;-72
2023/08/02 03:02:19;;;;;;;1999.90;999.90;;;;;;;24.73;55.29;99851.50;5028958;28;20494;-72
2023/08/02 03:04:44;;;;;;;1999.90;999.90;;;;;;;24.41;55.63;99846.97;5043437;28;20021;-72
2023/08/02 03:07:10;;;;;;;1999.90;999.90;;;;;;;24.96;53.98;99830.78;5024899;28;20525;-71
2023/08/02 03:09:35;;;;;;;1999.90;999.90;;;;;;;24.28;56.41;99825.81;5023362;28;20433;-71
2023/08/02 03:12:01;;;;;;;1999.90;999.90;;;;;;;24.72;55.67;99818.56;5029618;28;20033;-72
2023/08/02 03:14:27;;;;;;;1999.90;999.90;;;;;;;24.60;54.84;99818.75;5030025;28;20049;-72
2023/08/02 03:16:52;;;;;;;1999.90;999.90;;;;;;;24.25;57.06;99815.41;5047554;28;20025;-72
2023/08/02 03:19:18;;;;;;;1999.90;999.90;;;;;;;24.54;56.03;99804.09;5031236;28;20496;-72
2023/08/02 03:21:43;;;;;;;1999.90;999.90;;;;;;;24.56;56.20;99802.97;5015986;28;20030;-72
2023/08/02 03:24:09;;;;;;;1999.90;999.90;;;;;;;24.26;57.17;99800.22;5009830;28;20087;-72
2023/08/02 03:26:37;;;;;;;1999.90;999.90;;;;;;;24.13;58.77;99785.22;5045147;28;20028;-72
2023/08/02 03:29:03;;;;;;;1999.90;999.90;;;;;;;24.81;56.52;99779.53;5035496;28;20481;-72
2023/08/02 03:31:28;;;;;;;1999.90;999.90;;;;;;;24.96;55.51;99788.00;5032514;28;20032;-72
2023/08/02 03:33:54;;;;;;;1999.90;999.90;;;;;;;24.77;56.90;99783.44;5028487;28;20022;-72
2023/08/02 03:36:19;;;;;;;1999.90;999.90;;;;;;;24.96;56.17;99781.84;5031821;28;20029;-72
2023/08/02 03:38:45;;;;;;;1999.90;999.90;;;;;;;24.65;56.76;99773.81;5027508;28;20060;-72
2023/08/02 03:41:10;;;;;;;1999.90;999.90;;;;;;;24.90;56.54;99769.84;5045181;28;20115;-72
2023/08/02 03:43:36;;;;;;;1999.90;999.90;;;;;;;24.92;56.18;99764.38;5047961;28;20432;-71
2023/08/02 03:46:02;;;;;;;1999.90;999.90;;;;;;;25.23;55.73;99758.00;5048097;28;20103;-72
2023/08/02 03:48:28;;;;;;;1999.90;999.90;;;;;;;25.13;55.24;99757.16;5043174;28;20370;-72
2023/08/02 03:50:55;;;;;;;1999.90;999.90;;;;;;;24.75;56.96;99748.00;5030853;28;20474;-72
2023/08/02 03:53:20;;;;;;;1999.90;999.90;;;;;;;24.30;58.15;99750.94;5032735;28;20030;-72
2023/08/02 03:55:46;;;;;;;1999.90;999.90;;;;;;;24.71;57.58;99746.56;5042521;28;20049;-72
2023/08/02 03:58:11;;;;;;;1999.90;999.90;;;;;;;24.78;56.62;99737.03;5045186;28;20063;-72
2023/08/02 04:00:37;;;;;;;1999.90;999.90;;;;;;;25.21;56.00;99725.25;5023833;28;20033;-72
2023/08/02 04:03:02;;;;;;;1999.90;999.90;;;;;;;25.26;55.60;99718.63;5029162;28;20025;-71
2023/08/02 04:05:27;;;;;;;1999.90;999.90;;;;;;;24.42;57.93;99715.16;5029393;28;20044;-72
2023/08/02 04:07:53;;;;;;;1999.90;999.90;;;;;;;24.63;58.83;99717.00;5045286;28;20060;-72
2023/08/02 04:10:18;;;;;;;1999.90;999.90;;;;;;;24.88;56.99;99705.88;5033156;28;20032;-72
2023/08/02 04:12:44;;;;;;;1999.90;999.90;;;;;;;24.62;57.84;99693.94;5031591;28;20029;-72
2023/08/02 04:15:10;;;;;;;1999.90;999.90;;;;;;;24.50;58.83;99699.31;5037569;28;20115;-72
2023/08/02 04:17:35;;;;;;;1999.90;999.90;;;;;;;24.47;59.01;99686.25;5043839;28;20033;-71
2023/08/02 04:20:01;;;;;;;1999.90;999.90;;;;;;;24.87;57.85;99679.28;5031220;28;20040;-72
2023/08/02 04:22:30;;;;;;;1999.90;999.90;;;;;;;24.52;58.71;99668.00;5032513;28;20033;-73
2023/08/02 04:24:56;;;;;;;1999.90;999.90;;;;;;;24.38;60.40;99665.69;5035415;28;20316;-72
2023/08/02 04:27:21;;;;;;;1999.90;999.90;;;;;;;24.16;61.40;99667.50;5052800;28;20021;-72
2023/08/02 04:29:48;;;;;;;1999.90;999.90;;;;;;;24.37;60.49;99661.31;5032846;28;20031;-72
2023/08/02 04:32:14;;;;;;;1999.90;999.90;;;;;;;23.63;63.34;99648.84;5031423;28;20025;-72
2023/08/02 04:34:39;;;;;;;1999.90;999.90;;;;;;;24.27;61.56;99647.91;5031983;28;20025;-72
2023/08/02 04:37:04;;;;;;;1999.90;999.90;;;;;;;24.13;61.80;99641.09;5050416;28;20021;-72
2023/08/02 04:39:30;;;;;;;1999.90;999.90;;;;;;;23.77;63.72;99623.69;5035760;28;20363;-72
2023/08/02 04:42:00;;;;;;;1999.90;999.90;;;;;;;23.99;63.17;99622.78;5036172;28;20079;-73
2023/08/02 04:44:25;;;;;;;1999.90;999.90;;;;;;;23.81;62.34;99609.13;5047571;28;20032;-72
2023/08/02 04:46:51;;;;;;;1999.90;999.90;;;;;;;24.06;61.98;99602.56;5047143;28;20029;-72
2023/08/02 04:49:16;;;;;;;1999.90;999.90;;;;;;;23.94;63.37;99593.78;5038160;28;20113;-72
2023/08/02 04:51:42;;;;;;;1999.90;999.90;;;;;;;23.58;63.35;99585.25;5031265;28;20474;-72
2023/08/02 04:54:07;;;;;;;1999.90;999.90;;;;;;;23.81;64.28;99585.97;5031128;28;20454;-72
2023/08/02 04:56:33;;;;;;;1999.90;999.90;;;;;;;23.27;65.63;99586.97;5046330;28;20516;-72
2023/08/02 04:58:58;;;;;;;1999.90;999.90;;;;;;;23.86;63.32;99575.75;5039603;28;20033;-73
2023/08/02 05:01:24;;;;;;;1999.90;999.90;;;;;;;23.16;67.98;99578.06;5032695;28;20076;-72
2023/08/02 05:03:49;;;;;;;1999.90;999.90;;;;;;;23.84;65.85;99566.19;5030901;28;20656;-73
2023/08/02 05:06:15;;;;;;;1999.90;999.90;;;;;;;23.37;66.83;99556.75;5042776;28;20025;-72
2023/08/02 05:08:40;;;;;;;1999.90;999.90;;;;;;;24.14;64.54;99541.38;5042099;28;20568;-72
2023/08/02 05:11:07;;;;;;;1999.90;999.90;;;;;;;23.55;67.08;99538.34;5038535;28;20051;-73
2023/08/02 05:13:32;;;;;;;1999.90;999.90;;;;;;;24.02;64.20;99521.94;5027244;28;20509;-73
2023/08/02 05:15:58;;;;;;;1999.90;999.90;;;;;;;23.62;66.25;99513.84;5028267;28;20029;-72
2023/08/02 05:18:23;;;;;;;1999.90;999.90;;;;;;;23.92;64.96;99498.84;5041772;28;20032;-72
2023/08/02 05:20:49;;;;;;;1999.90;999.90;;;;;;;23.83;66.31;99498.63;5031262;28;20029;-72
2023/08/02 05:23:15;;;;;;;1999.90;999.90;;;;;;;23.41;68.10;99496.03;5032208;28;20021;-72
2023/08/02 05:25:41;;;;;;;1999.90;999.90;;;;;;;23.45;68.78;99496.59;5036844;28;20066;-72
2023/08/02 05:28:06;;;;;;;1999.90;999.90;;;;;;;23.35;68.30;99485.88;5032476;28;20018;-72
2023/08/02 05:30:35;;;;;;;1999.90;999.90;;;;;;;23.54;69.09;99480.66;5042930;28;20047;-72
2023/08/02 05:33:00;;;;;;;1999.90;999.90;;;;;;;23.95;66.77;99466.56;5050820;28;20025;-72
2023/08/02 05:35:26;;;;;;;1999.90;999.90;;;;;;;23.96;66.94;99460.25;5044867;28;20105;-72
2023/08/02 05:37:52;;;;;;;1999.90;999.90;;;;;;;23.11;71.20;99470.97;5029499;28;20018;-73
2023/08/02 05:40:18;;;;;;;1999.90;999.90;;;;;;;23.79;68.47;99462.53;5037586;28;21545;-74
2023/08/02 05:42:44;;;;;;;1999.90;999.90;;;;;;;24.01;66.60;99456.19;5049556;28;20017;-74
2023/08/02 05:45:10;;;;;;;1999.90;999.90;;;;;;;23.09;71.70;99464.91;5050894;28;20108;-73
2023/08/02 05:47:36;;;;;;;1999.90;999.90;;;;;;;23.37;71.59;99447.44;5084344;28;20365;-73
2023/08/02 05:50:01;;;;;;;1999.90;999.90;;;;;;;23.07;72.05;99447.34;5033150;28;20111;-73
2023/08/02 05:52:27;;;;;;;1999.90;999.90;;;;;;;23.60;70.77;99446.44;5050362;28;20461;-73
2023/08/02 05:54:52;;;;;;;1999.90;999.90;;;;;;;23.76;69.09;99438.78;5037849;28;20041;-72
2023/08/02 05:57:18;;;;;;;1999.90;999.90;;;;;;;23.87;68.56;99433.34;5031118;28;20024;-73
2023/08/02 05:59:43;;;;;;;1999.90;999.90;;;;;;;23.66;68.99;99419.25;5036019;28;20028;-73
2023/08/02 06:02:09;;;;;;;1999.90;999.90;;;;;;;23.55;69.26;99406.84;5050408;28;20032;-74
2023/08/02 06:04:39;;;;;;;1999.90;999.90;;;;;;;23.55;70.14;99413.03;5034553;28;20026;-73
2023/08/02 06:07:05;;;;;;;1999.90;999.90;;;;;;;23.57;69.35;99394.22;5048920;28;20083;-73
2023/08/02 06:09:30;;;;;;;1999.90;999.90;;;;;;;23.74;68.95;99399.91;5050051;28;20021;-73
2023/08/02 06:11:56;;;;;;;1999.90;999.90;;;;;;;23.74;69.91;99398.09;5042243;28;20033;-73
2023/08/02 06:14:21;;;;;;;1999.90;999.90;;;;;;;23.77;69.49;99394.28;5042930;28;20489;-73
2023/08/02 06:16:47;;;;;;;1999.90;999.90;;;;;;;23.28;71.75;99389.59;5030997;28;20049;-73
2023/08/02 06:19:13;;;;;;;1999.90;999.90;;;;;;;23.49;71.10;99380.72;5029345;28;20104;-73
2023/08/02 06:21:38;;;;;;;1999.90;999.90;;;;;;;23.82;68.80;99382.25;5037634;28;20029;-72
2023/08/02 06:24:04;;;;;;;1999.90;999.90;;;;;;;23.61;70.95;99357.47;5040773;28;20112;-73
2023/08/02 06:26:30;;;;;;;1999.90;999.90;;;;;;;23.23;71.86;99349.16;5029536;28;20108;-73
2023/08/02 06:28:56;;;;;;;1999.90;999.90;;;;;;;23.99;68.32;99342.59;5026494;28;20057;-73
2023/08/02 06:31:21;;;;;;;1999.90;999.90;;;;;;;24.13;68.73;99326.16;5030095;28;20031;-73
2023/08/02 06:33:47;;;;;;;1999.90;999.90;;;;;;;23.64;71.23;99320.69;5029326;28;20034;-72
2023/08/02 06:36:13;;;;;;;1999.90;999.90;;;;;;;24.17;67.83;99316.06;5041049;28;20113;-71
2023/08/02 06:38:39;;;;;;;1999.90;999.90;;;;;;;23.84;69.13;99310.91;5031823;28;20033;-73
2023/08/02 06:41:04;;;;;;;1999.90;999.90;;;;;;;23.86;70.38;99313.44;5029671;28;20053;-73
2023/08/02 06:43:30;;;;;;;1999.90;999.90;;;;;;;23.86;69.87;99306.31;5046800;28;20465;-72
2023/08/02 06:45:57;;;;;;;1999.90;999.90;;;;;;;24.06;69.98;99301.00;5029537;28;20390;-72
2023/08/02 06:48:24;;;;;;;1999.90;999.90;;;;;;;24.37;68.26;99290.19;5049528;28;20024;-72
2023/08/02 06:50:53;;;;;;;1999.90;999.90;;;;;;;24.07;70.16;99299.19;5050557;28;20021;-72
2023/08/02 06:53:18;;;;;;;1999.90;999.90;;;;;;;24.17;70.18;99300.88;5038305;28;20030;-72
2023/08/02 06:55:44;;;;;;;1999.90;999.90;;;;;;;23.74;71.96;99288.72;5034660;28;20047;-73
2023/08/02 06:58:10;;;;;;;1999.90;999.90;;;;;;;23.62;72.88;99268.50;5048996;28;20025;-72
2023/08/02 07:00:38;;;;;;;1999.90;999.90;;;;;;;23.75;72.83;99274.41;5048601;28;20025;-73
2023/08/02 07:03:05;;;;;;;1999.90;999.90;;;;;;;24.11;70.58;99247.22;5049945;28;20031;-73
2023/08/02 07:05:31;;;;;;;1999.90;999.90;;;;;;;24.14;68.75;99245.13;5030504;28;20049;-73
2023/08/02 07:08:01;;;;;;;1999.90;999.90;;;;;;;23.49;72.79;99253.59;5047754;28;20059;-74
2023/08/02 07:10:28;;;;;;;1999.90;999.90;;;;;;;23.46;73.99;99243.19;5031966;28;20033;-73
2023/08/02 07:12:55;;;;;;;1999.90;999.90;;;;;;;23.72;73.92;99232.84;5030938;28;20029;-72
2023/08/02 07:15:20;;;;;;;1999.90;999.90;;;;;;;24.08;70.36;99224.31;5035242;28;20068;-73
2023/08/02 07:17:46;;;;;;;1999.90;999.90;;;;;;;23.96;70.43;99217.44;5047862;28;20056;-74
2023/08/02 07:20:13;;;;;;;1999.90;999.90;;;;;;;23.36;73.24;99215.69;5025302;28;20036;-72
2023/08/02 07:22:39;;;;;;;1999.90;999.90;;;;;;;22.91;76.95;99208.06;5028181;28;20104;-73
2023/08/02 07:25:05;;;;;;;1999.90;999.90;;;;;;;23.03;78.65;99199.00;5028470;28;20072;-73
2023/08/02 07:27:31;;;;;;;1999.90;999.90;;;;;;;23.86;71.57;99186.25;5037474;28;20493;-72
2023/08/02 07:29:56;;;;;;;1999.90;999.90;;;;;;;23.98;72.81;99178.97;5034404;28;20123;-73
2023/08/02 07:32:23;;;;;;;1999.90;999.90;;;;;;;24.15;71.70;99177.41;5030260;28;20034;-73
2023/08/02 07:34:48;;;;;;;1999.90;999.90;;;;;;;23.38;75.59;99184.38;5026777;28;20048;-73
2023/08/02 07:37:14;;;;;;;1999.90;999.90;;;;;;;23.55;74.09;99167.72;5026930;28;20068;-73
2023/08/02 07:39:40;;;;;;;1999.90;999.90;;;;;;;24.52;70.38;99171.28;5046157;28;20029;-74
2023/08/02 07:42:07;;;;;;;1999.90;999.90;;;;;;;24.05;70.88;99164.06;5039040;28;20029;-74
2023/08/02 07:44:33;;;;;;;1999.90;999.90;;;;;;;22.87;78.96;99157.75;5029046;28;20025;-73
2023/08/02 07:46:58;;;;;;;1999.90;999.90;;;;;;;24.16;72.67;99155.06;5029894;28;20036;-75
2023/08/02 07:49:24;;;;;;;1999.90;999.90;;;;;;;24.29;71.06;99153.91;5027618;28;20114;-74
2023/08/02 07:51:49;;;;;;;1999.90;999.90;;;;;;;24.03;73.20;99154.53;5041262;28;20048;-73
2023/08/02 07:54:14;;;;;;;1999.90;999.90;;;;;;;24.46;69.53;99144.31;5029027;28;20038;-72
2023/08/02 07:56:40;;;;;;;1999.90;999.90;;;;;;;23.91;73.29;99155.69;5029173;28;20628;-73
2023/08/02 07:59:05;;;;;;;1999.90;999.90;;;;;;;24.26;70.87;99144.34;5029180;28;20061;-73
2023/08/02 08:01:31;;;;;;;1999.90;999.90;;;;;;;23.93;74.86;99146.53;5040337;28;20025;-72
2023/08/02 08:03:56;;;;;;;1999.90;999.90;;;;;;;24.08;73.52;99136.25;5026671;28;20022;-72
2023/08/02 08:06:24;;;;;;;1999.90;999.90;;;;;;;24.19;71.55;99138.78;5028982;28;20030;-72
2023/08/02 08:08:50;;;;;;;1999.90;999.90;;;;;;;24.12;73.08;99136.81;5029572;28;20026;-72
2023/08/02 08:11:16;;;;;;;1999.90;999.90;;;;;;;24.40;70.86;99127.06;5042113;28;20435;-73
2023/08/02 08:13:42;;;;;;;1999.90;999.90;;;;;;;24.51;71.66;99126.88;5043464;28;20080;-72
2023/08/02 08:16:07;;;;;;;1999.90;999.90;;;;;;;23.81;74.51;99137.81;5028737;28;20029;-72
2023/08/02 08:18:34;;;;;;;1999.90;999.90;;;;;;;24.14;76.15;99122.34;5028170;28;20109;-72
2023/08/02 08:21:04;;;;;;;1999.90;999.90;;;;;;;23.66;79.83;99117.91;5040210;28;20068;-72
2023/08/02 08:23:30;;;;;;;1999.90;999.90;;;;;;;24.22;77.00;99113.59;5048630;28;20435;-72
2023/08/02 08:25:55;;;;;;;1999.90;999.90;;;;;;;24.55;76.08;99098.88;5049197;28;20623;-72
2023/08/02 08:28:21;;;;;;;1999.90;999.90;;;;;;;24.54;76.33;99107.88;5044486;28;20489;-70
2023/08/02 08:30:47;;;;;;;1999.90;999.90;;;;;;;25.00;74.39;99109.78;5037479;28;20029;-72
2023/08/02 08:33:12;;;;;;;1999.90;999.90;;;;;;;25.36;74.13;99099.13;5050509;28;20033;-72
2023/08/02 08:35:38;;;;;;;1999.90;999.90;;;;;;;25.34;73.36;99085.09;5051597;28;20020;-71
2023/08/02 08:38:03;;;;;;;1999.90;999.90;;;;;;;25.19;73.60;99080.25;5048997;28;20036;-71
2023/08/02 08:40:29;;;;;;;1999.90;999.90;;;;;;;25.61;72.80;99075.28;5039182;28;20428;-72
2023/08/02 08:42:56;;;;;;;1999.90;999.90;;;;;;;25.88;71.13;99077.00;5051259;28;20456;-72
2023/08/02 08:45:26;;;;;;;1999.90;999.90;;;;;;;25.37;75.09;99063.41;5051416;28;20029;-71
2023/08/02 08:47:52;;;;;;;1999.90;999.90;;;;;;;26.40;69.71;99044.84;5052040;28;20556;-71
2023/08/02 08:50:20;;;;;;;1999.90;999.90;;;;;;;26.81;68.06;99057.59;5045712;28;20030;-72
2023/08/02 08:52:47;;;;;;;1999.90;999.90;;;;;;;26.44;65.92;99056.09;5030293;28;20472;-72
2023/08/02 08:55:14;;;;;;;1999.90;999.90;;;;;;;25.87;70.28;99062.78;5030939;28;20064;-72
2023/08/02 08:57:41;;;;;;;1999.90;999.90;;;;;;;26.21;70.17;99067.38;5031911;28;20025;-71
2023/08/02 09:00:10;;;;;;;1999.90;999.90;;;;;;;26.36;69.08;99058.72;5032533;28;20029;-71
2023/08/02 09:02:39;;;;;;;1999.90;999.90;;;;;;;26.66;65.86;99060.03;5050882;28;20481;-71
2023/08/02 09:05:06;;;;;;;1999.90;999.90;;;;;;;26.16;69.27;99052.75;5052265;28;20021;-72
2023/08/02 09:07:32;;;;;;;1999.90;999.90;;;;;;;25.59;72.44;99053.22;5051455;28;20056;-72
2023/08/02 09:09:57;;;;;;;1999.90;999.90;;;;;;;26.50;67.21;99050.09;5028385;28;20057;-71
2023/08/02 09:12:24;;;;;;;1999.90;999.90;;;;;;;26.41;70.14;99056.41;5031215;28;20049;-71
2023/08/02 09:15:02;;;;;;;1999.90;999.90;;;;;;;26.52;69.89;99048.09;5031345;28;20026;-71
2023/08/02 09:17:43;;;;;;;1999.90;999.90;;;;;;;26.92;69.01;99043.03;5031476;28;20022;-72
2023/08/02 09:20:09;;;;;;;1999.90;999.90;;;;;;;27.15;64.75;99032.53;5031878;28;20389;-71
2023/08/02 09:22:35;;;;;;;1999.90;999.90;;;;;;;26.55;70.34;99033.53;5050281;28;20034;-71
2023/08/02 09:25:07;;;;;;;1999.90;999.90;;;;;;;26.28;70.54;99034.59;5051056;28;20123;-72
2023/08/02 09:27:32;;;;;;;1999.90;999.90;;;;;;;26.51;70.39;99030.31;5050806;28;20025;-72
2023/08/02 09:29:58;;;;;;;1999.90;999.90;;;;;;;26.29;70.90;99031.75;5032944;28;20456;-71
2023/08/02 09:32:24;;;;;;;1999.90;999.90;;;;;;;26.58;71.19;99035.88;5031099;28;20033;-72
2023/08/02 09:34:51;;;;;;;1999.90;999.90;;;;;;;26.92;68.78;99027.78;5029680;28;20025;-72
2023/08/02 09:37:36;;;;;;;1999.90;999.90;;;;;;;26.16;72.92;99042.91;5047122;28;20029;-72
2023/08/02 09:40:09;;;;;;;1999.90;999.90;;;;;;;26.82;70.52;99031.63;5028968;28;20493;-71
2023/08/02 09:42:35;;;;;;;1999.90;999.90;;;;;;;27.87;65.68;99023.78;5049136;28;20068;-71
2023/08/02 09:45:03;;;;;;;1999.90;999.90;;;;;;;28.02;61.65;99017.75;5050190;28;20021;-72
2023/08/02 09:47:29;;;;;;;595.78;459.30;;;;;;;27.39;64.50;99022.84;5051838;28;20020;-72
2023/08/02 09:50:09;;;;;;;874.13;663.92;;;;;;;27.70;60.88;99019.47;5035040;28;20441;-72
2023/08/02 09:52:39;;;;;;;1305.30;903.60;;;;;;;26.88;67.18;99022.94;5010396;28;20114;-72
2023/08/02 09:55:06;;;;;;;1251.63;999.90;;;;;;;27.35;60.79;99011.56;5010134;28;20048;-72
2023/08/02 09:57:32;;;;;;;1152.63;999.90;;;;;;;28.02;59.40;99017.75;5026480;28;20030;-72
2023/08/02 10:00:06;;;;;;;1147.00;999.90;;;;;;;26.96;61.00;99006.88;5022869;28;20035;-72
2023/08/02 10:02:35;;;;;;;1050.75;957.22;;;;;;;27.11;59.42;99011.56;5044092;28;20033;-71
2023/08/02 10:05:02;;;;;;;948.08;871.75;;;;;;;27.89;57.83;99007.50;5034722;28;20036;-72
2023/08/02 10:07:39;;;;;;;870.10;804.10;;;;;;;28.82;55.25;98997.91;5050034;28;20025;-72
2023/08/02 10:10:07;;;;;;;756.08;703.55;;;;;;;28.37;53.06;98994.09;5035917;28;20037;-71
2023/08/02 10:12:38;;;;;;;551.97;517.75;;;;;;;28.44;54.46;99005.84;5066910;28;20029;-72
2023/08/02 10:15:04;;;;;;;523.63;491.50;;;;;;;28.93;52.64;99000.22;5030088;28;20026;-71
2023/08/02 10:17:31;;;;;;;446.25;420.25;;;;;;;27.21;53.64;98994.31;5029012;28;20062;-72
2023/08/02 10:20:01;;;;;;;168.10;158.88;;;;;;;27.22;53.14;99008.56;5031434;28;20489;-71
2023/08/02 10:22:27;;;;;;;111.35;105.35;;;;;;;27.85;50.97;98998.97;5049362;28;20103;-71
2023/08/02 10:24:52;;;;;;;73.75;69.55;;;;;;;27.15;50.96;99000.34;5049529;28;20108;-72
2023/08/02 10:27:19;;;;;;;42.30;39.67;;;;;;;27.93;48.40;98988.22;5049682;28;20504;-72
2023/08/02 10:29:46;;;;;;;40.75;38.47;;;;;;;27.84;49.67;98978.50;5042076;28;20025;-72
2023/08/02 10:32:13;;;;;;;8.07;7.47;;;;;;;28.26;46.31;98984.56;5028831;28;20115;-71
2023/08/02 10:34:38;;;;;;;4.18;2.55;;;;;;;27.90;47.71;98985.88;5028443;28;20040;-71
2023/08/02 10:37:04;;;;;;;2.92;2.72;;;;;;;28.31;46.82;98989.44;5031221;28;20022;-73
2023/08/02 10:39:45;;;;;;;3.40;3.10;;;;;;;28.10;47.16;98978.28;5026878;28;20120;-70
2023/08/02 10:42:11;;;;;;;4.65;2.60;;;;;;;28.19;46.83;98972.88;5036381;28;20117;-71
2023/08/02 10:44:36;;;;;;;5.13;3.65;;;;;;;28.42;47.01;98971.06;5048817;28;20029;-71
2023/08/02 10:47:28;;;;;;;5.20;4.22;;;;;;;28.45;46.53;98969.88;5037206;28;20063;-72
2023/08/02 10:49:55;;;;;;;10.10;4.85;;;;;;;27.33;49.02;98969.84;5031377;28;20025;-71
2023/08/02 10:52:35;;;;;;;6.95;3.70;;;;;;;28.67;47.37;98970.94;5049818;28;20032;-72